createdAt,value
2023-02-13T00:02:05.556Z,51.82
2023-02-13T00:04:35.137Z,51.72
2023-02-13T00:07:03.936Z,51.88
2023-02-13T00:09:31.945Z,52.01
2023-02-13T00:12:00.180Z,51.78
2023-02-13T00:14:28.517Z,51.94
2023-02-13T00:16:56.529Z,52.00
2023-02-13T00:19:25.422Z,51.73
2023-02-13T00:21:54.957Z,51.77
2023-02-13T00:24:23.816Z,51.91
2023-02-13T00:26:52.042Z,51.70
2023-02-13T00:29:20.655Z,51.69
2023-02-13T00:31:49.085Z,51.74
2023-02-13T00:34:17.201Z,51.91
2023-02-13T00:36:45.466Z,51.93
2023-02-13T00:39:14.991Z,51.51
2023-02-13T00:41:43.091Z,51.79
2023-02-13T00:44:11.661Z,51.95
2023-02-13T00:46:39.980Z,51.98
2023-02-13T00:49:08.447Z,51.60
2023-02-13T00:51:36.782Z,51.94
2023-02-13T00:54:05.240Z,51.24
2023-02-13T00:56:34.679Z,51.77
2023-02-13T00:59:02.633Z,51.80
2023-02-13T01:01:30.711Z,51.80
2023-02-13T01:03:59.017Z,51.83
2023-02-13T01:06:27.773Z,51.74
2023-02-13T01:08:55.844Z,51.60
2023-02-13T01:11:26.297Z,51.88
2023-02-13T01:13:55.750Z,51.88
2023-02-13T01:16:23.861Z,51.80
2023-02-13T01:18:51.953Z,51.64
2023-02-13T01:21:22.167Z,51.94
2023-02-13T01:23:51.652Z,51.44
2023-02-13T01:26:22.284Z,51.54
2023-02-13T01:28:53.677Z,51.40
2023-02-13T01:31:23.649Z,51.40
2023-02-13T01:33:52.357Z,51.59
2023-02-13T01:36:20.324Z,51.55
2023-02-13T01:38:48.707Z,51.47
2023-02-13T01:41:16.719Z,51.48
2023-02-13T01:43:47.498Z,51.62
2023-02-13T01:46:19.668Z,51.47
2023-02-13T01:48:50.897Z,51.43
2023-02-13T01:51:23.549Z,51.61
2023-02-13T01:53:56.238Z,51.80
2023-02-13T01:56:28.464Z,51.78
2023-02-13T01:59:01.167Z,52.02
2023-02-13T02:01:30.429Z,51.88
2023-02-13T02:04:06.143Z,51.92
2023-02-13T02:06:40.187Z,51.72
2023-02-13T02:09:15.590Z,51.65
2023-02-13T02:11:52.838Z,51.54
2023-02-13T02:14:21.516Z,51.73
2023-02-13T02:16:49.718Z,51.76
2023-02-13T02:19:28.096Z,51.55
2023-02-13T02:22:16.857Z,51.61
2023-02-13T02:25:19.921Z,51.52
2023-02-13T02:28:08.470Z,51.75
2023-02-13T02:31:24.190Z,51.71
2023-02-13T02:34:08.542Z,51.77
2023-02-13T02:36:48.362Z,51.91
2023-02-13T02:39:27.656Z,51.59
2023-02-13T02:42:04.499Z,52.02
2023-02-13T02:44:36.334Z,51.78
2023-02-13T02:47:29.145Z,51.92
2023-02-13T02:50:18.160Z,51.60
2023-02-13T02:52:58.431Z,51.97
2023-02-13T02:55:36.904Z,51.91
2023-02-13T02:58:33.428Z,51.99
2023-02-13T03:01:21.573Z,52.02
2023-02-13T03:04:08.041Z,51.94
2023-02-13T03:06:42.153Z,51.92
2023-02-13T03:09:34.135Z,51.76
2023-02-13T03:12:21.873Z,52.02
2023-02-13T03:14:50.088Z,52.04
2023-02-13T03:17:37.735Z,51.89
2023-02-13T03:20:36.133Z,51.95
2023-02-13T03:23:18.649Z,51.85
2023-02-13T03:26:07.242Z,51.77
2023-02-13T03:29:10.302Z,51.94
2023-02-13T03:31:47.755Z,52.23
2023-02-13T03:34:20.526Z,52.28
2023-02-13T03:37:09.678Z,52.15
2023-02-13T03:39:49.312Z,52.12
2023-02-13T03:42:24.729Z,51.95
2023-02-13T03:45:11.254Z,52.07
2023-02-13T03:47:40.536Z,51.91
2023-02-13T03:50:09.978Z,52.34
2023-02-13T03:52:42.772Z,52.13
2023-02-13T03:55:32.693Z,52.06
2023-02-13T03:58:22.072Z,52.24
2023-02-13T04:00:54.054Z,52.30
2023-02-13T04:03:27.443Z,52.17
2023-02-13T04:06:00.663Z,52.07
2023-02-13T04:08:28.850Z,52.03
2023-02-13T04:11:07.199Z,52.40
2023-02-13T04:13:37.624Z,52.51
2023-02-13T04:16:12.839Z,52.58
2023-02-13T04:18:41.337Z,52.53
2023-02-13T04:21:09.441Z,52.42
2023-02-13T04:23:37.855Z,52.74
2023-02-13T04:26:15.410Z,52.67
2023-02-13T04:28:43.336Z,52.75
2023-02-13T04:31:11.942Z,52.73
2023-02-13T04:33:40.015Z,52.53
2023-02-13T04:36:08.710Z,52.69
2023-02-13T04:38:36.724Z,52.73
2023-02-13T04:41:04.733Z,52.31
2023-02-13T04:43:34.305Z,52.56
2023-02-13T04:46:02.511Z,52.57
2023-02-13T04:48:30.833Z,52.66
2023-02-13T04:50:59.427Z,52.84
2023-02-13T04:53:27.692Z,52.88
2023-02-13T04:55:55.732Z,52.76
2023-02-13T04:58:23.951Z,52.95
2023-02-13T05:00:53.566Z,52.63
2023-02-13T05:03:21.898Z,52.67
2023-02-13T05:05:50.258Z,52.74
2023-02-13T05:08:18.468Z,52.63
2023-02-13T05:10:46.774Z,52.66
2023-02-13T05:13:16.880Z,52.95
2023-02-13T05:15:45.262Z,52.94
2023-02-13T05:18:15.632Z,52.45
2023-02-13T05:20:43.740Z,52.75
2023-02-13T05:23:23.228Z,53.09
2023-02-13T05:25:51.968Z,52.81
2023-02-13T05:28:37.712Z,52.97
2023-02-13T05:31:06.402Z,53.11
2023-02-13T05:33:36.314Z,52.83
2023-02-13T05:36:04.663Z,52.97
2023-02-13T05:38:32.681Z,53.03
2023-02-13T05:41:01.296Z,53.16
2023-02-13T05:43:29.451Z,52.83
2023-02-13T05:46:04.988Z,52.76
2023-02-13T05:48:33.189Z,53.19
2023-02-13T05:51:02.986Z,53.00
2023-02-13T05:53:31.044Z,53.15
2023-02-13T05:55:59.056Z,52.54
2023-02-13T05:58:27.135Z,53.07
2023-02-13T06:00:58.638Z,53.29
2023-02-13T06:03:27.799Z,53.20
2023-02-13T06:05:56.647Z,53.33
2023-02-13T06:08:27.361Z,53.00
2023-02-13T06:10:55.820Z,53.15
2023-02-13T06:13:24.137Z,53.62
2023-02-13T06:15:52.496Z,53.20
2023-02-13T06:18:20.570Z,52.89
2023-02-13T06:20:48.507Z,52.97
2023-02-13T06:23:18.784Z,53.21
2023-02-13T06:25:48.244Z,52.70
2023-02-13T06:28:16.601Z,52.75
2023-02-13T06:30:44.783Z,52.88
2023-02-13T06:33:12.961Z,53.00
2023-02-13T06:35:41.116Z,53.16
2023-02-13T06:38:09.248Z,53.35
2023-02-13T06:40:37.335Z,53.24
2023-02-13T06:43:06.920Z,53.30
2023-02-13T06:45:35.017Z,53.05
2023-02-13T06:48:03.155Z,53.21
2023-02-13T06:50:32.441Z,52.88
2023-02-13T06:53:01.196Z,53.12
2023-02-13T06:55:29.923Z,52.91
2023-02-13T06:57:58.026Z,53.18
2023-02-13T07:00:27.862Z,52.64
2023-02-13T07:02:55.988Z,53.11
2023-02-13T07:05:24.004Z,52.94
2023-02-13T07:07:52.145Z,53.11
2023-02-13T07:10:20.478Z,53.11
2023-02-13T07:13:03.643Z,53.10
2023-02-13T07:15:35.806Z,53.07
2023-02-13T07:18:05.860Z,52.71
2023-02-13T07:20:34.549Z,53.00
2023-02-13T07:23:03.718Z,52.82
2023-02-13T07:25:33.039Z,52.67
2023-02-13T07:28:04.889Z,52.91
2023-02-13T07:30:36.036Z,52.88
2023-02-13T07:33:04.987Z,52.75
2023-02-13T07:35:33.135Z,53.06
2023-02-13T07:38:01.311Z,53.08
2023-02-13T07:40:29.659Z,52.99
2023-02-13T07:43:01.114Z,52.97
2023-02-13T07:45:29.169Z,53.04
2023-02-13T07:47:59.942Z,52.77
2023-02-13T07:50:28.561Z,53.07
2023-02-13T07:52:56.793Z,53.13
2023-02-13T07:55:25.061Z,53.32
2023-02-13T07:57:53.367Z,53.10
2023-02-13T08:00:22.464Z,53.09
2023-02-13T08:02:50.565Z,53.24
2023-02-13T08:05:20.661Z,53.53
2023-02-13T08:07:48.783Z,53.50
2023-02-13T08:10:34.770Z,53.46
2023-02-13T08:13:02.854Z,53.23
2023-02-13T08:15:30.942Z,53.37
2023-02-13T08:17:59.233Z,53.65
2023-02-13T08:20:29.013Z,53.53
2023-02-13T08:23:07.203Z,53.50
2023-02-13T08:25:36.316Z,53.17
2023-02-13T08:28:04.541Z,53.45
2023-02-13T08:30:35.773Z,53.35
2023-02-13T08:33:04.588Z,53.37
2023-02-13T08:35:34.755Z,53.51
2023-02-13T08:38:06.528Z,53.61
2023-02-13T08:40:36.713Z,53.07
2023-02-13T08:43:07.954Z,53.44
2023-02-13T08:45:37.190Z,53.43
2023-02-13T08:48:05.606Z,53.47
2023-02-13T08:50:37.004Z,53.42
2023-02-13T08:53:05.582Z,53.41
2023-02-13T08:55:33.868Z,53.40
2023-02-13T08:58:03.217Z,53.43
2023-02-13T09:00:32.135Z,53.63
2023-02-13T09:03:03.296Z,53.65
2023-02-13T09:05:32.797Z,53.34
2023-02-13T09:08:03.927Z,53.54
2023-02-13T09:10:32.403Z,53.55
2023-02-13T09:13:01.426Z,53.31
2023-02-13T09:15:29.422Z,53.36
2023-02-13T09:17:57.507Z,53.50
2023-02-13T09:20:26.048Z,53.40
2023-02-13T09:22:56.043Z,53.40
2023-02-13T09:25:25.830Z,53.28
2023-02-13T09:27:53.855Z,53.11
2023-02-13T09:30:24.613Z,53.48
2023-02-13T09:32:53.230Z,53.37
2023-02-13T09:35:22.361Z,53.16
2023-02-13T09:37:50.972Z,53.61
2023-02-13T09:40:24.243Z,53.37
2023-02-13T09:42:54.630Z,53.57
2023-02-13T09:45:23.752Z,53.29
2023-02-13T09:47:52.110Z,53.06
2023-02-13T09:50:24.798Z,53.18
2023-02-13T09:52:55.911Z,53.32
2023-02-13T09:55:28.631Z,53.42
2023-02-13T09:58:06.299Z,52.97
2023-02-13T10:00:40.543Z,53.05
2023-02-13T10:03:27.527Z,53.13
2023-02-13T10:06:02.976Z,52.94
2023-02-13T10:08:42.933Z,52.62
2023-02-13T10:11:35.251Z,52.55
2023-02-13T10:14:21.917Z,52.41
2023-02-13T10:16:54.895Z,52.42
2023-02-13T10:19:36.142Z,52.58
2023-02-13T10:22:08.912Z,52.25
2023-02-13T10:24:41.605Z,52.33
2023-02-13T10:27:22.801Z,52.06
2023-02-13T10:30:06.960Z,52.06
2023-02-13T10:32:50.599Z,51.93
2023-02-13T10:35:24.684Z,51.84
2023-02-13T10:38:01.138Z,51.53
2023-02-13T10:40:40.548Z,51.47
2023-02-13T10:43:12.282Z,51.17
2023-02-13T10:46:08.894Z,50.91
2023-02-13T10:48:54.017Z,51.04
2023-02-13T10:51:33.702Z,50.68
2023-02-13T10:54:22.299Z,50.60
2023-02-13T10:56:58.953Z,50.38
2023-02-13T10:59:51.608Z,50.38
2023-02-13T11:02:29.938Z,50.35
2023-02-13T11:05:04.476Z,49.80
2023-02-13T11:07:33.891Z,49.99
2023-02-13T11:10:07.152Z,49.93
2023-02-13T11:12:38.464Z,49.64
2023-02-13T11:15:21.361Z,49.66
2023-02-13T11:17:52.901Z,49.68
2023-02-13T11:20:33.072Z,49.61
2023-02-13T11:23:23.551Z,49.53
2023-02-13T11:26:02.840Z,49.28
2023-02-13T11:28:33.876Z,49.22
2023-02-13T11:31:19.444Z,48.87
2023-02-13T11:33:51.482Z,48.75
2023-02-13T11:36:28.347Z,48.73
2023-02-13T11:39:01.731Z,48.66
2023-02-13T11:41:33.951Z,48.69
2023-02-13T11:44:06.440Z,48.43
2023-02-13T11:46:48.443Z,48.49
2023-02-13T11:49:21.558Z,48.46
2023-02-13T11:51:53.482Z,48.24
2023-02-13T11:54:29.316Z,48.20
2023-02-13T11:57:06.797Z,48.03
2023-02-13T12:02:30.872Z,47.84
2023-02-13T12:05:19.231Z,47.85
2023-02-13T12:07:48.659Z,47.55
2023-02-13T12:10:23.659Z,47.64
2023-02-13T12:12:56.771Z,47.72
2023-02-13T12:15:28.286Z,47.56
2023-02-13T12:18:06.142Z,47.61
2023-02-13T12:20:44.806Z,47.46
2023-02-13T12:23:28.223Z,47.19
2023-02-13T12:26:17.934Z,47.24
2023-02-13T12:29:09.403Z,47.04
2023-02-13T12:31:54.438Z,46.93
2023-02-13T12:34:56.640Z,46.55
2023-02-13T12:37:53.339Z,46.76
2023-02-13T12:44:19.622Z,46.65
2023-02-13T12:46:56.249Z,46.27
2023-02-13T12:49:49.984Z,46.52
2023-02-13T12:52:35.746Z,46.16
2023-02-13T12:55:20.605Z,46.19
2023-02-13T12:58:05.280Z,46.16
2023-02-13T13:00:45.092Z,46.16
2023-02-13T13:03:35.073Z,46.04
2023-02-13T13:06:15.522Z,45.82
2023-02-13T13:09:18.977Z,45.79
2023-02-13T13:12:11.608Z,45.87
2023-02-13T13:14:50.015Z,45.63
2023-02-13T13:17:37.480Z,45.83
2023-02-13T13:20:23.848Z,45.64
2023-02-13T13:22:57.348Z,45.43
2023-02-13T13:25:33.155Z,45.28
2023-02-13T13:28:07.614Z,45.08
2023-02-13T13:30:39.731Z,45.13
2023-02-13T13:33:17.394Z,44.96
2023-02-13T13:35:54.211Z,44.90
2023-02-13T13:38:31.942Z,44.92
2023-02-13T13:41:07.934Z,44.48
2023-02-13T13:43:51.405Z,44.52
2023-02-13T13:46:26.359Z,44.63
2023-02-13T13:49:25.345Z,44.83
2023-02-13T13:51:53.788Z,44.47
2023-02-13T13:54:53.076Z,44.46
2023-02-13T13:57:26.229Z,44.43
2023-02-13T14:00:32.906Z,44.00
2023-02-13T14:03:26.335Z,44.00
2023-02-13T14:06:08.480Z,43.94
2023-02-13T14:09:37.921Z,43.69
2023-02-13T14:12:41.545Z,43.27
2023-02-13T14:15:50.377Z,42.84
2023-02-13T14:18:27.890Z,42.92
2023-02-13T14:20:59.357Z,42.86
2023-02-13T14:23:50.464Z,42.80
2023-02-13T14:26:34.917Z,42.80
2023-02-13T14:29:28.900Z,42.77
2023-02-13T14:32:27.130Z,42.50
2023-02-13T14:35:01.142Z,42.89
2023-02-13T14:37:40.490Z,45.04
2023-02-13T14:40:45.423Z,46.71
2023-02-13T14:43:35.869Z,46.75
2023-02-13T14:46:11.021Z,46.24
2023-02-13T14:48:46.878Z,45.08
2023-02-13T14:51:28.853Z,44.09
2023-02-13T14:54:02.889Z,41.73
2023-02-13T14:56:33.057Z,40.47
2023-02-13T14:59:12.059Z,39.45
2023-02-13T15:01:53.059Z,37.88
2023-02-13T15:04:40.522Z,36.72
2023-02-13T15:07:26.773Z,35.53
2023-02-13T15:10:01.600Z,34.51
2023-02-13T15:12:35.281Z,34.05
2023-02-13T15:15:25.069Z,32.80
2023-02-13T15:18:03.586Z,31.74
2023-02-13T15:20:37.150Z,30.61
2023-02-13T15:23:09.723Z,30.38
2023-02-13T15:25:40.285Z,30.42
2023-02-13T15:28:20.757Z,30.38
2023-02-13T15:30:56.067Z,30.87
2023-02-13T15:33:27.478Z,31.65
2023-02-13T15:35:58.392Z,32.27
2023-02-13T15:38:32.211Z,32.93
2023-02-13T15:41:05.377Z,33.67
2023-02-13T15:43:37.081Z,34.08
2023-02-13T15:46:08.056Z,34.69
2023-02-13T15:48:36.876Z,35.03
2023-02-13T15:51:05.445Z,35.48
2023-02-13T15:53:35.246Z,35.81
2023-02-13T15:56:05.481Z,36.29
2023-02-13T15:58:36.301Z,36.47
2023-02-13T16:01:08.089Z,36.79
2023-02-13T16:03:37.982Z,36.93
2023-02-13T16:06:09.133Z,37.27
2023-02-13T16:08:46.408Z,37.72
2023-02-13T16:11:42.166Z,38.05
2023-02-13T16:14:21.174Z,37.83
2023-02-13T16:16:53.601Z,38.34
2023-02-13T16:19:30.203Z,38.37
2023-02-13T16:22:01.481Z,38.53
2023-02-13T16:24:32.222Z,38.69
2023-02-13T16:27:00.748Z,38.65
2023-02-13T16:29:28.927Z,38.85
2023-02-13T16:32:05.783Z,38.81
2023-02-13T16:34:33.930Z,38.62
2023-02-13T16:37:02.007Z,38.52
2023-02-13T16:39:33.904Z,38.50
2023-02-13T16:42:02.899Z,38.57
2023-02-13T16:44:32.451Z,38.87
2023-02-13T16:47:02.996Z,39.64
2023-02-13T16:49:34.170Z,39.76
2023-02-13T16:52:12.702Z,39.54
2023-02-13T16:54:56.153Z,39.07
2023-02-13T16:57:30.237Z,38.69
2023-02-13T17:00:15.865Z,38.54
2023-02-13T17:02:44.099Z,38.02
2023-02-13T17:05:22.525Z,38.74
2023-02-13T17:07:55.434Z,38.94
2023-02-13T17:10:27.707Z,39.02
2023-02-13T17:12:58.505Z,39.37
2023-02-13T17:15:28.627Z,39.71
2023-02-13T17:17:56.954Z,39.85
2023-02-13T17:20:27.909Z,40.33
2023-02-13T17:22:58.191Z,40.43
2023-02-13T17:25:29.642Z,40.69
2023-02-13T17:28:01.009Z,40.91
2023-02-13T17:30:32.935Z,40.95
2023-02-13T17:33:07.619Z,41.58
2023-02-13T17:35:37.321Z,41.79
2023-02-13T17:38:10.218Z,41.91
2023-02-13T17:40:41.527Z,41.75
2023-02-13T17:43:13.014Z,42.20
2023-02-13T17:45:41.308Z,42.33
2023-02-13T17:48:09.693Z,42.59
2023-02-13T17:50:38.267Z,42.56
2023-02-13T17:53:10.219Z,42.90
2023-02-13T17:55:42.595Z,43.30
2023-02-13T17:58:11.368Z,42.97
2023-02-13T18:00:40.079Z,43.39
2023-02-13T18:03:09.171Z,43.75
2023-02-13T18:05:39.091Z,43.60
2023-02-13T18:08:07.779Z,43.80
2023-02-13T18:10:38.093Z,44.13
2023-02-13T18:13:08.535Z,44.40
2023-02-13T18:15:42.793Z,44.67
2023-02-13T18:18:13.618Z,44.59
2023-02-13T18:20:50.056Z,44.70
2023-02-13T18:23:31.464Z,44.99
2023-02-13T18:26:12.791Z,45.01
2023-02-13T18:28:44.202Z,45.36
2023-02-13T18:31:17.423Z,45.50
2023-02-13T18:36:57.053Z,45.61
2023-02-13T18:39:27.327Z,45.94
2023-02-13T18:41:57.552Z,45.76
2023-02-13T18:44:29.177Z,45.94
2023-02-13T18:46:57.536Z,45.96
2023-02-13T18:49:26.114Z,46.44
2023-02-13T18:51:54.701Z,46.37
2023-02-13T18:54:24.346Z,46.46
2023-02-13T18:56:53.200Z,46.58
2023-02-13T18:59:22.164Z,46.56
2023-02-13T19:01:52.816Z,46.98
2023-02-13T19:04:20.988Z,46.98
2023-02-13T19:06:48.952Z,46.91
2023-02-13T19:09:16.999Z,47.08
2023-02-13T19:11:45.982Z,47.21
2023-02-13T19:14:15.356Z,46.98
2023-02-13T19:16:43.619Z,47.04
2023-02-13T19:19:13.136Z,47.19
2023-02-13T19:21:41.289Z,47.16
2023-02-13T19:24:10.981Z,47.43
2023-02-13T19:26:39.027Z,47.52
2023-02-13T19:29:07.072Z,47.45
2023-02-13T19:31:35.569Z,47.82
2023-02-13T19:34:05.956Z,47.31
2023-02-13T19:36:35.545Z,47.61
2023-02-13T19:39:06.832Z,47.74
2023-02-13T19:41:35.995Z,47.73
2023-02-13T19:44:05.418Z,47.72
2023-02-13T19:46:34.046Z,47.52
2023-02-13T19:49:03.172Z,48.17
2023-02-13T19:51:32.801Z,47.92
2023-02-13T19:54:04.564Z,48.05
2023-02-13T19:56:36.527Z,48.16
2023-02-13T19:59:05.347Z,48.23
2023-02-13T20:01:33.531Z,48.30
2023-02-13T20:04:01.575Z,48.29
2023-02-13T20:06:33.531Z,48.54
2023-02-13T20:09:06.615Z,48.36
2023-02-13T20:11:34.747Z,48.40
2023-02-13T20:14:04.984Z,48.39
2023-02-13T20:16:36.672Z,48.77
2023-02-13T20:19:09.233Z,48.46
2023-02-13T20:21:37.616Z,48.85
2023-02-13T20:24:07.770Z,48.74
2023-02-13T20:26:38.136Z,48.76
2023-02-13T20:29:06.667Z,48.79
2023-02-13T20:31:35.031Z,48.63
2023-02-13T20:34:07.263Z,48.98
2023-02-13T20:36:50.366Z,48.79
2023-02-13T20:42:41.285Z,49.40
2023-02-13T20:45:10.347Z,49.56
2023-02-13T20:47:38.363Z,49.82
2023-02-13T20:50:07.101Z,49.33
2023-02-13T20:52:35.999Z,49.68
2023-02-13T20:55:04.441Z,49.84
2023-02-13T20:57:34.832Z,49.72
2023-02-13T21:00:06.337Z,49.79
2023-02-13T21:02:36.180Z,49.79
2023-02-13T21:05:05.347Z,49.89
2023-02-13T21:07:35.574Z,49.76
2023-02-13T21:10:05.999Z,49.45
2023-02-13T21:12:35.071Z,49.86
2023-02-13T21:15:05.149Z,49.98
2023-02-13T21:17:34.124Z,49.88
2023-02-13T21:20:02.503Z,50.26
2023-02-13T21:22:31.389Z,50.43
2023-02-13T21:24:59.546Z,50.46
2023-02-13T21:27:28.498Z,50.39
2023-02-13T21:29:57.299Z,50.37
2023-02-13T21:32:27.273Z,50.31
2023-02-13T21:34:56.788Z,50.32
2023-02-13T21:37:24.839Z,50.39
2023-02-13T21:39:52.888Z,50.07
2023-02-13T21:42:21.504Z,50.41
2023-02-13T21:44:49.655Z,50.75
2023-02-13T21:47:18.432Z,50.75
2023-02-13T21:49:49.437Z,50.71
2023-02-13T21:52:18.899Z,50.71
2023-02-13T21:54:49.327Z,51.10
2023-02-13T21:57:20.646Z,50.58
2023-02-13T21:59:48.861Z,50.86
2023-02-13T22:02:17.441Z,50.80
2023-02-13T22:04:46.080Z,50.81
2023-02-13T22:07:15.526Z,50.81
2023-02-13T22:09:43.495Z,50.90
2023-02-13T22:12:11.481Z,50.99
2023-02-13T22:14:39.571Z,51.13
2023-02-13T22:17:07.637Z,51.18
2023-02-13T22:19:35.781Z,51.07
2023-02-13T22:22:03.838Z,51.35
2023-02-13T22:24:33.842Z,51.20
2023-02-13T22:27:03.210Z,51.45
2023-02-13T22:29:31.292Z,51.42
2023-02-13T22:31:59.480Z,51.61
2023-02-13T22:34:27.549Z,51.41
2023-02-13T22:36:55.751Z,51.78
2023-02-13T22:39:23.835Z,51.74
2023-02-13T22:41:56.911Z,51.79
2023-02-13T22:44:24.876Z,52.10
2023-02-13T22:46:52.866Z,51.74
2023-02-13T22:49:20.968Z,51.87
2023-02-13T22:51:48.943Z,51.34
2023-02-13T22:54:17.050Z,51.40
2023-02-13T22:56:45.096Z,51.62
2023-02-13T22:59:14.565Z,51.60
2023-02-13T23:01:42.593Z,51.58
2023-02-13T23:04:10.703Z,51.67
2023-02-13T23:06:38.688Z,51.74
2023-02-13T23:09:08.260Z,51.69
2023-02-13T23:11:53.606Z,51.75
2023-02-13T23:14:26.172Z,51.66
2023-02-13T23:17:11.584Z,51.55
2023-02-13T23:19:39.491Z,51.66
2023-02-13T23:22:07.677Z,51.87
2023-02-13T23:24:35.736Z,51.51
2023-02-13T23:27:03.765Z,51.44
2023-02-13T23:29:33.224Z,51.95
2023-02-13T23:32:01.413Z,51.99
2023-02-13T23:34:29.607Z,51.92
2023-02-13T23:36:57.628Z,52.08
2023-02-13T23:39:25.772Z,52.13
2023-02-13T23:41:54.340Z,52.31
2023-02-13T23:44:22.398Z,52.09
2023-02-13T23:46:51.896Z,52.32
2023-02-13T23:49:21.025Z,51.99
2023-02-13T23:51:49.453Z,52.20
2023-02-13T23:54:18.740Z,52.06
2023-02-13T23:56:47.184Z,52.21
2023-02-13T23:59:16.610Z,52.34
